Terminal Aerodrome Forecast
Issued by NWS Duluth, MN

Home | Current Version | Previous Version | Text Only | Print | Product List | Glossary On
Versions: 1 2 3 4 5 6 7 8 9 10 11 12 13 14 15 16 17 18 19 20 21 22 23 24
000
FTUS43 KDLH 251300 AAB
TAFDLH
TAF AMD
KDLH 251304Z 2513/2612 07018G27KT 2SM -RA BR OVC008
     FM251500 06013KT 1 1/2SM -RA BR OVC004
     FM260100 36006KT 1SM -DZ BR OVC002
     FM261000 VRB03KT 3SM BR OVC007=

USA.gov is the U.S. government's official web portal to all federal, state and local government web resources and services.